Time;durP1;ratioP1;P1;durP2;ratioP2;P2;SDS_P1;SDS_P2;PMS_P1;PMS_P2;Temp;Humidity;BMP_temperature;BMP_pressure;BME280_temperature;BME280_humidity;BME280_pressure;Samples;Min_cycle;Max_cycle;Signal;HPM_P1;HPM_P2
2024/01/10 00:01:41;;;;;;;;;;;;;;;21.58;25.02;103240.09;5035088;28;20110;-76
2024/01/10 00:04:06;;;;;;;;;;;;;;;21.57;24.81;103240.19;5048401;28;19925;-76
2024/01/10 00:06:31;;;;;;;;;;;;;;;21.55;25.03;103234.94;5048720;28;19920;-76
2024/01/10 00:08:56;;;;;;;;;;;;;;;21.54;25.02;103235.94;5044767;28;19913;-75
2024/01/10 00:11:22;;;;;;;;;;;;;;;21.52;25.05;103235.19;5041882;28;19913;-76
2024/01/10 00:13:47;;;;;;;;;;;;;;;21.53;24.89;103226.06;5035805;28;19988;-76
2024/01/10 00:16:13;;;;;;;;;;;;;;;21.53;25.02;103230.63;5030459;28;19975;-75
2024/01/10 00:18:40;;;;;;;;;;;;;;;21.54;25.02;103226.94;5043455;28;19913;-77
2024/01/10 00:21:05;;;;;;;;;;;;;;;21.51;25.17;103230.75;5038114;28;19917;-77
2024/01/10 00:23:30;;;;;;;;;;;;;;;21.53;25.02;103222.50;5034868;28;19922;-77
2024/01/10 00:25:55;;;;;;;;;;;;;;;21.51;25.15;103228.06;5036425;28;19952;-77
2024/01/10 00:28:20;;;;;;;;;;;;;;;21.54;25.21;103216.13;5041204;28;19920;-76
2024/01/10 00:30:47;;;;;;;;;;;;;;;21.54;25.01;103208.00;5037521;28;19949;-77
2024/01/10 00:33:13;;;;;;;;;;;;;;;21.55;25.06;103215.97;5041659;28;19917;-77
2024/01/10 00:35:38;;;;;;;;;;;;;;;21.53;25.04;103207.13;5048774;28;20040;-76
2024/01/10 00:38:03;;;;;;;;;;;;;;;21.52;25.08;103194.56;5045390;28;19917;-73
2024/01/10 00:40:28;;;;;;;;;;;;;;;21.51;24.97;103194.72;5034854;28;19920;-76
2024/01/10 00:42:54;;;;;;;;;;;;;;;21.51;24.91;103198.28;5034043;28;19925;-76
2024/01/10 00:45:19;;;;;;;;;;;;;;;21.49;25.15;103202.09;5038316;28;19923;-76
2024/01/10 00:47:44;;;;;;;;;;;;;;;21.50;25.15;103193.00;5038207;28;19913;-76
2024/01/10 00:50:09;;;;;;;;;;;;;;;21.49;25.14;103197.53;5037625;28;19917;-76
2024/01/10 00:52:35;;;;;;;;;;;;;;;21.51;24.83;103194.72;5035972;28;19991;-76
2024/01/10 00:55:00;;;;;;;;;;;;;;;21.52;24.81;103196.44;5039413;28;19913;-76
2024/01/10 00:57:25;;;;;;;;;;;;;;;21.51;24.93;103190.16;5035082;28;19943;-75
2024/01/10 00:59:50;;;;;;;;;;;;;;;21.48;25.05;103192.25;5036263;28;19918;-76
2024/01/10 01:02:15;;;;;;;;;;;;;;;21.46;25.21;103190.56;5062357;28;19975;-76
2024/01/10 01:04:41;;;;;;;;;;;;;;;21.43;25.14;103198.06;5039214;28;19925;-76
2024/01/10 01:07:06;;;;;;;;;;;;;;;21.44;25.19;103194.38;5038312;28;19960;-76
2024/01/10 01:09:31;;;;;;;;;;;;;;;21.44;24.87;103194.38;5043917;28;19917;-76
2024/01/10 01:11:56;;;;;;;;;;;;;;;21.45;24.99;103190.66;5041390;28;20358;-76
2024/01/10 01:14:21;;;;;;;;;;;;;;;21.46;25.17;103197.81;5044295;28;19920;-76
2024/01/10 01:16:47;;;;;;;;;;;;;;;21.43;25.19;103188.09;5049475;28;19917;-75
2024/01/10 01:19:12;;;;;;;;;;;;;;;21.42;25.28;103190.94;5052316;28;19925;-76
2024/01/10 01:21:37;;;;;;;;;;;;;;;21.39;24.99;103189.34;5043732;28;19913;-76
2024/01/10 01:24:03;;;;;;;;;;;;;;;21.40;25.24;103187.50;5040928;28;19924;-75
2024/01/10 01:26:28;;;;;;;;;;;;;;;21.36;25.37;103203.13;5045066;28;19973;-76
2024/01/10 01:28:53;;;;;;;;;;;;;;;21.38;25.32;103194.91;5039986;28;19984;-76
2024/01/10 01:31:19;;;;;;;;;;;;;;;21.40;25.20;103193.75;5035428;28;19914;-75
2024/01/10 01:33:44;;;;;;;;;;;;;;;21.40;25.39;103198.31;5036655;28;19920;-75
2024/01/10 01:36:09;;;;;;;;;;;;;;;21.40;25.35;103185.63;5041512;28;19920;-75
2024/01/10 01:38:35;;;;;;;;;;;;;;;21.36;25.14;103184.19;5040149;28;19918;-76
2024/01/10 01:41:00;;;;;;;;;;;;;;;21.33;25.34;103187.16;5039271;28;19913;-75
2024/01/10 01:43:26;;;;;;;;;;;;;;;21.37;25.17;103182.38;5044231;28;19928;-76
2024/01/10 01:45:54;;;;;;;;;;;;;;;21.37;25.18;103191.34;5051587;28;19923;-76
2024/01/10 01:48:20;;;;;;;;;;;;;;;21.38;25.05;103182.22;5052038;28;19913;-76
2024/01/10 01:50:46;;;;;;;;;;;;;;;21.39;25.32;103180.38;5047820;28;20007;-76
2024/01/10 01:53:11;;;;;;;;;;;;;;;21.35;25.32;103171.66;5040052;28;19917;-75
2024/01/10 01:55:37;;;;;;;;;;;;;;;21.34;25.14;103178.06;5034827;28;20019;-76
2024/01/10 01:58:02;;;;;;;;;;;;;;;21.32;25.27;103165.63;5040642;28;19971;-72
2024/01/10 02:00:27;;;;;;;;;;;;;;;21.32;25.13;103157.50;5043556;28;19914;-76
2024/01/10 02:02:52;;;;;;;;;;;;;;;21.29;25.52;103165.88;5037147;28;19917;-76
2024/01/10 02:05:17;;;;;;;;;;;;;;;21.27;25.18;103154.31;5039385;28;19928;-76
2024/01/10 02:07:43;;;;;;;;;;;;;;;21.25;25.58;103153.59;5038201;28;19917;-76
2024/01/10 02:10:08;;;;;;;;;;;;;;;21.27;25.41;103152.47;5038588;28;19984;-76
2024/01/10 02:12:33;;;;;;;;;;;;;;;21.28;25.41;103158.72;5043767;28;19924;-75
2024/01/10 02:14:59;;;;;;;;;;;;;;;21.28;25.46;103156.91;5044781;28;19996;-76
2024/01/10 02:17:24;;;;;;;;;;;;;;;21.30;25.45;103156.78;5045808;28;19913;-75
2024/01/10 02:19:49;;;;;;;;;;;;;;;21.34;25.20;103152.84;5045148;28;19936;-75
2024/01/10 02:22:14;;;;;;;;;;;;;;;21.32;25.05;103144.00;5034699;28;19919;-75
2024/01/10 02:24:39;;;;;;;;;;;;;;;21.33;25.35;103151.13;5037061;28;19920;-76
2024/01/10 02:27:05;;;;;;;;;;;;;;;21.29;25.30;103146.94;5042074;28;19980;-76
2024/01/10 02:29:30;;;;;;;;;;;;;;;21.25;25.39;103151.75;5041961;28;20080;-76
2024/01/10 02:31:55;;;;;;;;;;;;;;;21.22;25.31;103144.75;5037292;28;19919;-76
2024/01/10 02:34:20;;;;;;;;;;;;;;;21.26;25.45;103142.63;5040137;28;19913;-76
2024/01/10 02:36:46;;;;;;;;;;;;;;;21.28;25.18;103142.50;5036158;28;19936;-73
2024/01/10 02:39:11;;;;;;;;;;;;;;;21.30;25.17;103144.09;5030306;28;19925;-76
2024/01/10 02:41:36;;;;;;;;;;;;;;;21.29;25.40;103141.53;5051476;28;19920;-76
2024/01/10 02:44:01;;;;;;;;;;;;;;;21.30;25.33;103137.81;5050070;28;19918;-76
2024/01/10 02:46:27;;;;;;;;;;;;;;;21.28;25.24;103139.78;5034041;28;19914;-73
2024/01/10 02:48:53;;;;;;;;;;;;;;;21.25;25.40;103135.50;5041549;28;19913;-76
2024/01/10 02:51:18;;;;;;;;;;;;;;;21.23;25.50;103138.34;5040285;28;20358;-76
2024/01/10 02:53:43;;;;;;;;;;;;;;;21.24;25.36;103133.81;5037871;28;19924;-76
2024/01/10 02:56:08;;;;;;;;;;;;;;;21.23;25.41;103132.91;5049185;28;19920;-74
2024/01/10 02:58:33;;;;;;;;;;;;;;;21.22;25.24;103131.22;5049371;28;19964;-76
2024/01/10 03:00:59;;;;;;;;;;;;;;;21.26;25.22;103129.09;5047645;28;19956;-76
2024/01/10 03:03:24;;;;;;;;;;;;;;;21.23;25.38;103132.91;5041262;28;19917;-76
2024/01/10 03:05:49;;;;;;;;;;;;;;;21.21;25.20;103129.50;5039872;28;19982;-75
2024/01/10 03:08:14;;;;;;;;;;;;;;;21.23;25.17;103123.94;5038979;28;19916;-76
2024/01/10 03:10:39;;;;;;;;;;;;;;;21.25;25.27;103126.53;5034044;28;19921;-76
2024/01/10 03:13:04;;;;;;;;;;;;;;;21.27;25.28;103128.13;5030777;28;19913;-76
2024/01/10 03:15:31;;;;;;;;;;;;;;;21.26;25.41;103121.00;5037912;28;20018;-76
2024/01/10 03:17:56;;;;;;;;;;;;;;;21.26;25.22;103120.13;5039807;28;20024;-76
2024/01/10 03:20:21;;;;;;;;;;;;;;;21.25;25.41;103126.53;5039803;28;20375;-74
2024/01/10 03:22:46;;;;;;;;;;;;;;;21.27;25.40;103113.72;5039938;28;19943;-75
2024/01/10 03:25:11;;;;;;;;;;;;;;;21.22;25.46;103119.53;5048366;28;19920;-75
2024/01/10 03:27:36;;;;;;;;;;;;;;;21.21;25.25;103112.41;5050161;28;19923;-76
2024/01/10 03:30:02;;;;;;;;;;;;;;;21.20;25.51;103118.81;5047055;28;19913;-76
2024/01/10 03:32:27;;;;;;;;;;;;;;;21.18;25.29;103112.66;5042027;28;19918;-76
2024/01/10 03:34:52;;;;;;;;;;;;;;;21.19;25.60;103117.09;5035160;28;20337;-76
2024/01/10 03:37:18;;;;;;;;;;;;;;;21.18;25.49;103121.63;5036644;28;19917;-76
2024/01/10 03:39:43;;;;;;;;;;;;;;;21.19;25.53;103120.63;5042806;28;19914;-76
2024/01/10 03:42:08;;;;;;;;;;;;;;;21.19;25.51;103127.91;5038354;28;19970;-76
2024/01/10 03:44:34;;;;;;;;;;;;;;;21.19;25.33;103127.91;5036530;28;20007;-76
2024/01/10 03:46:59;;;;;;;;;;;;;;;21.17;25.35;103121.78;5035577;28;19925;-76
2024/01/10 03:49:24;;;;;;;;;;;;;;;21.19;25.41;103111.66;5037640;28;19913;-76
2024/01/10 03:51:49;;;;;;;;;;;;;;;21.17;25.51;103116.38;5036070;28;19967;-76
2024/01/10 03:54:14;;;;;;;;;;;;;;;21.18;25.46;103113.53;5042463;28;20065;-76
2024/01/10 03:56:40;;;;;;;;;;;;;;;21.17;25.51;103106.41;5045481;28;20004;-75
2024/01/10 03:59:05;;;;;;;;;;;;;;;21.19;25.16;103106.25;5045493;28;19917;-76
2024/01/10 04:01:30;;;;;;;;;;;;;;;21.20;25.47;103110.72;5031927;28;19924;-75
2024/01/10 04:03:55;;;;;;;;;;;;;;;21.17;25.43;103109.09;5033511;28;19929;-75
2024/01/10 04:06:20;;;;;;;;;;;;;;;21.18;25.41;103100.00;5037724;28;19917;-76
2024/01/10 04:08:46;;;;;;;;;;;;;;;21.18;25.42;103100.00;5038432;28;19913;-76
2024/01/10 04:11:11;;;;;;;;;;;;;;;21.16;25.33;103096.56;5038750;28;19940;-76
2024/01/10 04:13:36;;;;;;;;;;;;;;;21.15;25.43;103094.88;5031573;28;19917;-76
2024/01/10 04:16:01;;;;;;;;;;;;;;;21.16;25.23;103104.69;5034976;28;19917;-76
2024/01/10 04:18:26;;;;;;;;;;;;;;;21.17;25.39;103105.53;5029359;28;20051;-76
2024/01/10 04:20:51;;;;;;;;;;;;;;;21.15;25.36;103099.38;5037214;28;19913;-76
2024/01/10 04:23:17;;;;;;;;;;;;;;;21.14;25.26;103103.94;5053483;28;19924;-75
2024/01/10 04:25:42;;;;;;;;;;;;;;;21.14;25.13;103103.09;5036634;28;19913;-75
2024/01/10 04:28:07;;;;;;;;;;;;;;;21.10;25.21;103099.78;5037660;28;19920;-75
2024/01/10 04:30:32;;;;;;;;;;;;;;;21.09;25.45;103099.94;5040968;28;19952;-75
2024/01/10 04:32:57;;;;;;;;;;;;;;;21.10;25.28;103105.19;5035803;28;19914;-75
2024/01/10 04:35:23;;;;;;;;;;;;;;;21.11;25.41;103089.81;5044753;28;19921;-76
2024/01/10 04:37:48;;;;;;;;;;;;;;;21.13;25.47;103096.81;5045198;28;20638;-76
2024/01/10 04:40:13;;;;;;;;;;;;;;;21.10;25.47;103094.38;5049074;28;19913;-76
2024/01/10 04:42:38;;;;;;;;;;;;;;;21.10;25.35;103097.09;5038484;28;19920;-75
2024/01/10 04:45:04;;;;;;;;;;;;;;;21.12;25.38;103097.81;5041993;28;19979;-76
2024/01/10 04:47:29;;;;;;;;;;;;;;;21.12;25.26;103096.97;5041000;28;19913;-76
2024/01/10 04:49:54;;;;;;;;;;;;;;;21.11;25.52;103096.13;5036675;28;20012;-75
2024/01/10 04:52:19;;;;;;;;;;;;;;;21.11;25.43;103095.22;5030260;28;19921;-75
2024/01/10 04:54:44;;;;;;;;;;;;;;;21.10;25.34;103098.94;5030048;28;19914;-75
2024/01/10 04:57:10;;;;;;;;;;;;;;;21.08;25.45;103095.50;5037795;28;19913;-76
2024/01/10 04:59:35;;;;;;;;;;;;;;;21.11;25.47;103097.94;5040130;28;20008;-75
2024/01/10 05:02:00;;;;;;;;;;;;;;;21.11;25.15;103089.81;5035524;28;19952;-75
2024/01/10 05:04:25;;;;;;;;;;;;;;;21.11;25.22;103077.19;5043907;28;20032;-75
2024/01/10 05:06:50;;;;;;;;;;;;;;;21.09;25.27;103089.09;5046773;28;19943;-75
2024/01/10 05:09:16;;;;;;;;;;;;;;;21.04;25.42;103088.66;5047035;28;19921;-76
2024/01/10 05:11:41;;;;;;;;;;;;;;;20.99;25.55;103090.88;5034757;28;19924;-75
2024/01/10 05:14:06;;;;;;;;;;;;;;;20.98;25.56;103087.28;5034681;28;19972;-76
2024/01/10 05:16:31;;;;;;;;;;;;;;;20.99;25.47;103083.63;5031599;28;19994;-75
2024/01/10 05:18:57;;;;;;;;;;;;;;;20.98;25.24;103087.28;5041205;28;19917;-75
2024/01/10 05:21:22;;;;;;;;;;;;;;;20.98;25.21;103090.00;5039825;28;19937;-76
2024/01/10 05:23:47;;;;;;;;;;;;;;;21.01;25.53;103092.47;5033052;28;19921;-75
2024/01/10 05:26:12;;;;;;;;;;;;;;;21.01;25.43;103084.34;5037569;28;19913;-76
2024/01/10 05:28:37;;;;;;;;;;;;;;;20.99;25.19;103078.22;5033282;28;19921;-75
2024/01/10 05:31:03;;;;;;;;;;;;;;;20.99;25.25;103080.06;5037817;28;19920;-75
2024/01/10 05:33:28;;;;;;;;;;;;;;;20.97;25.46;103080.19;5038948;28;19920;-74
2024/01/10 05:35:53;;;;;;;;;;;;;;;20.96;25.38;103064.94;5042327;28;19983;-75
2024/01/10 05:38:18;;;;;;;;;;;;;;;20.99;25.55;103066.53;5044469;28;19917;-75
2024/01/10 05:40:43;;;;;;;;;;;;;;;20.97;25.42;103054.00;5034355;28;19917;-75
2024/01/10 05:43:10;;;;;;;;;;;;;;;20.97;25.46;103066.66;5034347;28;19961;-75
2024/01/10 05:45:35;;;;;;;;;;;;;;;20.96;25.44;103057.69;5039876;28;19917;-76
2024/01/10 05:48:01;;;;;;;;;;;;;;;20.93;25.20;103059.78;5039636;28;19924;-76
2024/01/10 05:50:26;;;;;;;;;;;;;;;20.89;25.34;103059.19;5037931;28;19920;-75
2024/01/10 05:52:51;;;;;;;;;;;;;;;20.90;25.49;103046.56;5038261;28;20539;-75
2024/01/10 05:55:16;;;;;;;;;;;;;;;20.89;25.39;103045.66;5040461;28;19922;-76
2024/01/10 05:57:42;;;;;;;;;;;;;;;20.89;25.23;103045.66;5036775;28;19913;-75
2024/01/10 06:00:11;;;;;;;;;;;;;;;20.89;25.28;103051.06;5034215;28;19920;-75
2024/01/10 06:02:38;;;;;;;;;;;;;;;20.89;25.27;103048.38;5045370;28;19979;-75
2024/01/10 06:05:05;;;;;;;;;;;;;;;20.87;25.28;103055.78;5050333;28;20008;-75
2024/01/10 06:07:30;;;;;;;;;;;;;;;20.86;25.48;103055.91;5035639;28;20298;-74
2024/01/10 06:09:55;;;;;;;;;;;;;;;20.85;25.42;103055.03;5042512;28;19914;-76
2024/01/10 06:12:20;;;;;;;;;;;;;;;20.82;25.36;103046.34;5041011;28;19917;-76
2024/01/10 06:14:46;;;;;;;;;;;;;;;20.82;25.50;103044.50;5043569;28;19975;-76
2024/01/10 06:17:11;;;;;;;;;;;;;;;20.84;25.45;103038.94;5049119;28;19971;-76
2024/01/10 06:19:36;;;;;;;;;;;;;;;20.81;25.44;103039.19;5044074;28;19935;-74
2024/01/10 06:22:02;;;;;;;;;;;;;;;20.82;25.47;103043.63;5043912;28;19923;-75
2024/01/10 06:24:27;;;;;;;;;;;;;;;20.78;25.51;103037.63;5039519;28;19920;-75
2024/01/10 06:26:52;;;;;;;;;;;;;;;20.79;25.36;103035.78;5043056;28;19945;-75
2024/01/10 06:29:18;;;;;;;;;;;;;;;20.79;25.25;103044.75;5041010;28;19924;-75
2024/01/10 06:31:43;;;;;;;;;;;;;;;20.82;25.29;103049.91;5034210;28;19920;-77
2024/01/10 06:34:08;;;;;;;;;;;;;;;20.76;25.38;103045.00;5030667;28;19923;-74
2024/01/10 06:36:33;;;;;;;;;;;;;;;20.25;25.26;102964.56;5039143;28;19920;-76
2024/01/10 06:38:59;;;;;;;;;;;;;;;20.75;25.26;103051.41;5038306;28;19962;-74
2024/01/10 06:41:24;;;;;;;;;;;;;;;20.76;25.25;103049.53;5040900;28;19924;-76
2024/01/10 06:43:50;;;;;;;;;;;;;;;20.77;25.30;103043.13;5040331;28;19917;-76
2024/01/10 06:46:15;;;;;;;;;;;;;;;20.74;25.26;103054.25;5043925;28;19913;-75
2024/01/10 06:48:41;;;;;;;;;;;;;;;20.69;25.32;103047.38;5044789;28;19913;-75
2024/01/10 06:51:09;;;;;;;;;;;;;;;20.67;25.25;103054.72;5046894;28;19932;-77
2024/01/10 06:53:34;;;;;;;;;;;;;;;20.63;25.42;103047.00;5029658;28;19921;-73
2024/01/10 06:55:59;;;;;;;;;;;;;;;20.61;25.79;103049.84;5035589;28;19987;-75
2024/01/10 06:58:25;;;;;;;;;;;;;;;20.61;25.48;103059.81;5036199;28;19939;-74
2024/01/10 07:00:50;;;;;;;;;;;;;;;20.61;25.43;103047.16;5043678;28;19921;-74
2024/01/10 07:03:15;;;;;;;;;;;;;;;20.62;25.80;103053.41;5039342;28;20374;-73
2024/01/10 07:05:41;;;;;;;;;;;;;;;20.60;25.69;103049.97;5037371;28;19927;-75
2024/01/10 07:08:06;;;;;;;;;;;;;;;20.61;25.65;103049.00;5038454;28;20388;-75
2024/01/10 07:10:34;;;;;;;;;;;;;;;20.56;25.76;103049.38;5035064;28;20361;-75
2024/01/10 07:12:59;;;;;;;;;;;;;;;20.55;25.81;103044.94;5037539;28;19917;-73
2024/01/10 07:15:24;;;;;;;;;;;;;;;20.54;25.54;103051.34;5044252;28;19917;-75
2024/01/10 07:17:49;;;;;;;;;;;;;;;20.53;25.94;103038.81;5043764;28;19917;-74
2024/01/10 07:20:15;;;;;;;;;;;;;;;20.52;25.86;103044.34;5045248;28;19967;-74
2024/01/10 07:22:41;;;;;;;;;;;;;;;20.50;25.78;103043.63;5039493;28;19964;-74
2024/01/10 07:25:07;;;;;;;;;;;;;;;20.49;25.78;103048.16;5033788;28;19913;-74
2024/01/10 07:27:32;;;;;;;;;;;;;;;20.47;25.68;103056.38;5040435;28;19924;-73
2024/01/10 07:29:57;;;;;;;;;;;;;;;20.48;25.70;103059.97;5038792;28;20048;-72
2024/01/10 07:32:23;;;;;;;;;;;;;;;20.45;26.08;103071.00;5038616;28;19971;-75
2024/01/10 07:34:48;;;;;;;;;;;;;;;20.44;25.77;103072.84;5039251;28;19913;-74
2024/01/10 07:37:13;;;;;;;;;;;;;;;20.43;25.73;103060.31;5034680;28;20004;-75
2024/01/10 07:39:38;;;;;;;;;;;;;;;20.45;26.06;103063.75;5027133;28;20384;-75
2024/01/10 07:42:03;;;;;;;;;;;;;;;20.44;26.23;103050.38;5042552;28;19921;-75
2024/01/10 07:44:29;;;;;;;;;;;;;;;20.42;26.10;103055.88;5043949;28;19928;-75
2024/01/10 07:46:55;;;;;;;;;;;;;;;20.43;25.88;103054.03;5035070;28;20392;-77
2024/01/10 07:49:21;;;;;;;;;;;;;;;20.41;26.24;103056.00;5037531;28;19913;-77
2024/01/10 07:51:47;;;;;;;;;;;;;;;20.41;25.89;103051.47;5041604;28;19913;-77
2024/01/10 07:54:12;;;;;;;;;;;;;;;20.40;26.06;103059.72;5036951;28;19917;-78
2024/01/10 07:56:37;;;;;;;;;;;;;;;20.39;26.04;103064.25;5045301;28;19977;-78
2024/01/10 07:59:04;;;;;;;;;;;;;;;20.39;25.91;103068.78;5041571;28;19917;-76
2024/01/10 08:01:29;;;;;;;;;;;;;;;20.39;26.02;103076.88;5047075;28;19963;-76
2024/01/10 08:03:55;;;;;;;;;;;;;;;20.37;25.76;103085.13;5037084;28;19917;-76
2024/01/10 08:06:20;;;;;;;;;;;;;;;20.38;26.10;103091.38;5028832;28;19928;-76
2024/01/10 08:08:46;;;;;;;;;;;;;;;20.34;25.86;103093.47;5040725;28;19921;-76
2024/01/10 08:11:11;;;;;;;;;;;;;;;20.36;26.03;103090.66;5041295;28;19917;-80
2024/01/10 08:13:36;;;;;;;;;;;;;;;20.34;26.08;103081.81;5029584;28;19948;-76
2024/01/10 08:16:03;;;;;;;;;;;;;;;20.38;25.87;103083.28;5032180;28;19917;-74
2024/01/10 08:18:28;;;;;;;;;;;;;;;20.40;25.71;103090.28;5037251;28;19914;-75
2024/01/10 08:20:55;;;;;;;;;;;;;;;20.39;25.69;103085.00;5039490;28;19925;-72
2024/01/10 08:23:20;;;;;;;;;;;;;;;20.39;25.69;103091.28;5038450;28;20317;-74
2024/01/10 08:25:45;;;;;;;;;;;;;;;20.37;25.71;103089.66;5041667;28;19917;-75
2024/01/10 08:28:11;;;;;;;;;;;;;;;20.36;25.69;103086.13;5042929;28;19917;-74
2024/01/10 08:30:36;;;;;;;;;;;;;;;20.39;25.75;103079.59;5025856;28;19925;-74
2024/01/10 08:33:04;;;;;;;;;;;;;;;20.37;25.78;103082.41;5039755;28;19914;-73
2024/01/10 08:35:29;;;;;;;;;;;;;;;20.38;25.90;103078.72;5035124;28;19928;-74
2024/01/10 08:37:54;;;;;;;;;;;;;;;20.41;25.88;103073.09;5035813;28;19917;-74
2024/01/10 08:40:21;;;;;;;;;;;;;;;20.40;25.55;103071.38;5039940;28;19917;-73
2024/01/10 08:42:46;;;;;;;;;;;;;;;20.40;25.50;103076.78;5037452;28;19917;-74
2024/01/10 08:45:11;;;;;;;;;;;;;;;20.43;25.43;103070.25;5036273;28;19929;-74
2024/01/10 08:47:37;;;;;;;;;;;;;;;20.42;25.58;103072.09;5039743;28;19922;-73
2024/01/10 08:50:04;;;;;;;;;;;;;;;20.40;25.64;103081.31;5038037;28;19918;-72
2024/01/10 08:52:29;;;;;;;;;;;;;;;20.42;25.71;103073.94;5033025;28;19980;-74
2024/01/10 08:54:56;;;;;;;;;;;;;;;20.42;25.59;103073.94;5041695;28;19939;-73
2024/01/10 08:57:21;;;;;;;;;;;;;;;20.39;25.81;103077.78;5033499;28;19913;-72
2024/01/10 08:59:46;;;;;;;;;;;;;;;20.38;25.47;103073.31;5037461;28;19944;-77
2024/01/10 09:02:11;;;;;;;;;;;;;;;20.42;25.54;103076.63;5033875;28;19921;-76
2024/01/10 09:04:36;;;;;;;;;;;;;;;20.43;25.41;103075.66;5034881;28;19925;-75
2024/01/10 09:07:02;;;;;;;;;;;;;;;20.40;25.29;103074.06;5037466;28;19921;-77
2024/01/10 09:09:27;;;;;;;;;;;;;;;20.43;25.36;103073.84;5036910;28;19924;-76
2024/01/10 09:11:52;;;;;;;;;;;;;;;20.43;25.24;103068.44;5040754;28;19948;-75
2024/01/10 09:14:18;;;;;;;;;;;;;;;20.42;25.24;103071.22;5041035;28;20329;-75
2024/01/10 09:16:43;;;;;;;;;;;;;;;20.43;25.27;103063.03;5039740;28;20036;-76
2024/01/10 09:19:09;;;;;;;;;;;;;;;20.01;25.03;102997.16;5032083;28;19948;-75
2024/01/10 09:21:34;;;;;;;;;;;;;;;20.40;25.11;103065.97;5043455;28;19921;-77
2024/01/10 09:24:00;;;;;;;;;;;;;;;20.39;25.28;103069.66;5044833;28;19926;-76
2024/01/10 09:26:25;;;;;;;;;;;;;;;20.39;25.03;103074.19;5040741;28;19995;-77
2024/01/10 09:28:50;;;;;;;;;;;;;;;20.40;25.00;103071.38;5040669;28;19913;-78
2024/01/10 09:31:15;;;;;;;;;;;;;;;20.42;24.92;103063.97;5040912;28;19925;-78
2024/01/10 09:33:40;;;;;;;;;;;;;;;20.44;24.85;103067.44;5037585;28;19922;-77
2024/01/10 09:36:06;;;;;;;;;;;;;;;20.42;24.99;103063.97;5045938;28;19980;-79
2024/01/10 09:38:34;;;;;;;;;;;;;;;20.44;25.17;103063.88;5046846;28;19924;-77
2024/01/10 09:41:02;;;;;;;;;;;;;;;20.43;24.87;103059.44;5050348;28;19918;-77
2024/01/10 09:43:28;;;;;;;;;;;;;;;20.44;24.96;103064.72;5041346;28;19971;-79
2024/01/10 09:45:54;;;;;;;;;;;;;;;20.43;24.73;103068.44;5041133;28;19944;-78
2024/01/10 09:48:19;;;;;;;;;;;;;;;20.44;24.73;103064.72;5042414;28;19917;-74
2024/01/10 09:50:44;;;;;;;;;;;;;;;20.44;24.79;103048.53;5041124;28;20784;-76
2024/01/10 09:53:11;;;;;;;;;;;;;;;20.45;24.90;103057.47;5031561;28;19917;-74
2024/01/10 09:55:37;;;;;;;;;;;;;;;20.46;24.68;103057.34;5034830;28;19913;-75
2024/01/10 09:58:04;;;;;;;;;;;;;;;20.47;24.53;103056.38;5039028;28;20055;-74
2024/01/10 10:00:29;;;;;;;;;;;;;;;20.43;24.67;103062.13;5038183;28;19913;-74
2024/01/10 10:02:55;;;;;;;;;;;;;;;20.42;24.68;103055.03;5041840;28;20386;-73
2024/01/10 10:05:20;;;;;;;;;;;;;;;20.41;24.92;103051.47;5044301;28;19921;-73
2024/01/10 10:07:46;;;;;;;;;;;;;;;20.43;25.00;103054.03;5029014;28;19921;-75
2024/01/10 10:10:12;;;;;;;;;;;;;;;20.44;24.95;103062.03;5044569;28;19918;-76
2024/01/10 10:12:47;;;;;;;;;;;;;;;20.45;25.33;103061.03;5043391;28;19924;-76
2024/01/10 10:15:14;;;;;;;;;;;;;;;20.46;25.09;103059.19;5038059;28;19922;-75
2024/01/10 10:17:45;;;;;;;;;;;;;;;20.46;25.01;103068.16;5033729;28;19913;-75
2024/01/10 10:20:11;;;;;;;;;;;;;;;20.49;25.12;103063.53;5042850;28;19923;-75
2024/01/10 10:22:37;;;;;;;;;;;;;;;20.51;24.90;103069.66;5039356;28;19917;-75
2024/01/10 10:25:02;;;;;;;;;;;;;;;20.51;25.14;103073.22;5039372;28;20072;-76
2024/01/10 10:27:28;;;;;;;;;;;;;;;20.55;24.92;103068.41;5039439;28;19921;-75
2024/01/10 10:29:53;;;;;;;;;;;;;;;20.56;25.12;103067.41;5035465;28;19917;-75
2024/01/10 10:32:18;;;;;;;;;;;;;;;20.57;24.75;103061.91;5038249;28;19953;-74
2024/01/10 10:34:44;;;;;;;;;;;;;;;20.58;25.03;103058.22;5040541;28;19940;-74
2024/01/10 10:37:09;;;;;;;;;;;;;;;20.58;24.95;103060.06;5042523;28;19917;-75
2024/01/10 10:39:34;;;;;;;;;;;;;;;20.59;25.06;103057.22;5042412;28;19924;-75
2024/01/10 10:41:59;;;;;;;;;;;;;;;20.61;24.96;103052.56;5040835;28;19992;-73
2024/01/10 10:44:25;;;;;;;;;;;;;;;20.60;25.00;103055.38;5028466;28;19927;-72
2024/01/10 10:46:53;;;;;;;;;;;;;;;20.61;24.98;103054.41;5039355;28;19940;-73
2024/01/10 10:49:18;;;;;;;;;;;;;;;20.58;25.26;103050.09;5036459;28;19913;-75
2024/01/10 10:51:43;;;;;;;;;;;;;;;20.61;25.33;103054.41;5039052;28;19967;-76
2024/01/10 10:54:08;;;;;;;;;;;;;;;20.63;25.12;103047.00;5038339;28;20050;-73
2024/01/10 10:56:36;;;;;;;;;;;;;;;20.60;25.41;103050.84;5036776;28;20096;-77
2024/01/10 10:59:02;;;;;;;;;;;;;;;20.64;25.09;103051.41;5031850;28;19917;-75
2024/01/10 11:01:27;;;;;;;;;;;;;;;20.67;25.22;103046.63;5038035;28;19931;-78
2024/01/10 11:03:52;;;;;;;;;;;;;;;20.71;25.38;103048.09;5041104;28;20349;-75
2024/01/10 11:06:17;;;;;;;;;;;;;;;20.75;25.17;103037.88;5038551;28;19936;-76
2024/01/10 11:08:46;;;;;;;;;;;;;;;20.79;24.98;103041.19;5037933;28;19916;-76
2024/01/10 11:11:33;;;;;;;;;;;;;;;20.81;25.06;103041.91;5040113;28;19929;-75
2024/01/10 11:14:19;;;;;;;;;;;;;;;20.84;25.06;103049.75;5034697;28;19940;-74
2024/01/10 11:16:44;;;;;;;;;;;;;;;20.87;25.02;103052.22;5044200;28;19984;-76
2024/01/10 11:19:27;;;;;;;;;;;;;;;20.90;25.23;103046.56;5046741;28;19916;-74
2024/01/10 11:22:11;;;;;;;;;;;;;;;20.94;25.14;103046.16;5050946;28;19944;-76
2024/01/10 11:24:36;;;;;;;;;;;;;;;21.03;24.95;103046.38;5037992;28;19975;-77
2024/01/10 11:27:06;;;;;;;;;;;;;;;21.11;24.89;103049.25;5039805;28;19926;-77
2024/01/10 11:29:32;;;;;;;;;;;;;;;21.19;24.92;103042.19;5036391;28;19917;-77
2024/01/10 11:31:57;;;;;;;;;;;;;;;21.27;24.56;103040.69;5042861;28;19917;-77
2024/01/10 11:34:24;;;;;;;;;;;;;;;21.34;24.41;103041.91;5032130;28;19921;-77
2024/01/10 11:37:08;;;;;;;;;;;;;;;21.42;24.57;103045.66;5037139;28;19920;-76
2024/01/10 11:39:35;;;;;;;;;;;;;;;21.50;24.17;103034.16;5021742;28;19913;-77
2024/01/10 11:42:00;;;;;;;;;;;;;;;21.58;24.27;103031.66;5039565;28;19994;-77
2024/01/10 11:44:26;;;;;;;;;;;;;;;21.63;24.52;103018.56;5040506;28;19944;-77
2024/01/10 11:46:52;;;;;;;;;;;;;;;21.72;24.25;103027.72;5040049;28;19922;-77
2024/01/10 11:49:18;;;;;;;;;;;;;;;21.75;24.44;103021.16;5047441;28;20027;-75
2024/01/10 11:51:48;;;;;;;;;;;;;;;21.75;24.54;103026.56;5045405;28;19913;-76
2024/01/10 11:54:32;;;;;;;;;;;;;;;21.73;24.73;103020.44;5039258;28;19913;-75
2024/01/10 11:56:57;;;;;;;;;;;;;;;21.71;24.65;103032.28;5035888;28;19913;-77
2024/01/10 11:59:22;;;;;;;;;;;;;;;21.71;24.87;103031.44;5035693;28;19917;-75
2024/01/10 12:01:47;;;;;;;;;;;;;;;21.73;24.67;103025.88;5039909;28;19917;-75
2024/01/10 12:04:13;;;;;;;;;;;;;;;21.75;24.52;103029.28;5034973;28;20015;-76
2024/01/10 12:06:39;;;;;;;;;;;;;;;21.78;24.84;103029.00;5039130;28;19917;-76
2024/01/10 12:09:11;;;;;;;;;;;;;;;21.79;24.66;103028.91;5035515;28;19916;-76
2024/01/10 12:11:39;;;;;;;;;;;;;;;21.80;24.82;103021.63;5033896;28;19913;-76
2024/01/10 12:14:04;;;;;;;;;;;;;;;21.78;24.65;103024.44;5039025;28;19918;-76
2024/01/10 12:16:29;;;;;;;;;;;;;;;21.76;24.85;103018.31;5045149;28;19920;-77
2024/01/10 12:18:54;;;;;;;;;;;;;;;21.75;24.84;103015.72;5042629;28;19923;-77
2024/01/10 12:21:19;;;;;;;;;;;;;;;21.73;25.08;103018.59;5043221;28;20003;-76
2024/01/10 12:23:45;;;;;;;;;;;;;;;21.68;25.06;103018.16;5030221;28;19928;-76
2024/01/10 12:26:13;;;;;;;;;;;;;;;21.62;25.18;103008.72;5032294;28;19973;-77
2024/01/10 12:28:39;;;;;;;;;;;;;;;21.62;25.04;103002.44;5038870;28;19981;-77